Time;durP1;ratioP1;P1;durP2;ratioP2;P2;SDS_P1;SDS_P2;PMS_P1;PMS_P2;Temp;Humidity;BMP_temperature;BMP_pressure;BME280_temperature;BME280_humidity;BME280_pressure;Samples;Min_cycle;Max_cycle;Signal;HPM_P1;HPM_P2
2022/12/16 00:02:11;;;;;;;38.22;16.77;;;;;;;-148.88;100.00;77804.88;5013261;28;20018;-73
2022/12/16 00:04:37;;;;;;;44.42;18.45;;;;;;;-148.88;100.00;77808.97;5011930;28;20022;-73
2022/12/16 00:07:02;;;;;;;42.40;17.73;;;;;;;-148.88;100.00;77813.03;5011951;28;20501;-73
2022/12/16 00:09:27;;;;;;;34.80;18.08;;;;;;;-148.88;100.00;77821.16;5013193;28;20105;-73
2022/12/16 00:11:52;;;;;;;41.45;17.77;;;;;;;-148.88;100.00;77827.25;5013582;28;20041;-73
2022/12/16 00:14:18;;;;;;;43.50;16.50;;;;;;;-148.88;100.00;77819.13;5012129;28;20022;-73
2022/12/16 00:16:43;;;;;;;37.33;15.48;;;;;;;-148.88;100.00;77821.16;5013284;28;20333;-73
2022/12/16 00:19:08;;;;;;;35.78;16.25;;;;;;;-148.88;100.00;77825.22;5013112;28;20087;-73
2022/12/16 00:21:34;;;;;;;37.97;14.88;;;;;;;-148.88;100.00;77813.03;5012986;28;20033;-73
2022/12/16 00:23:59;;;;;;;39.70;16.42;;;;;;;-148.88;100.00;77821.16;5011412;28;20350;-73
2022/12/16 00:26:24;;;;;;;40.25;16.40;;;;;;;-148.88;100.00;77817.09;5012736;28;20392;-73
2022/12/16 00:28:50;;;;;;;40.25;14.85;;;;;;;-148.88;100.00;77811.00;5012706;28;20022;-73
2022/12/16 00:31:16;;;;;;;35.22;14.88;;;;;;;-148.88;100.00;77806.94;5012789;28;20136;-73
2022/12/16 00:33:42;;;;;;;42.47;14.43;;;;;;;-148.88;100.00;77808.97;5012690;28;20025;-73
2022/12/16 00:36:07;;;;;;;34.85;15.45;;;;;;;-148.88;100.00;77813.03;5013074;28;20473;-73
2022/12/16 00:38:33;;;;;;;42.20;15.85;;;;;;;-148.88;100.00;77817.09;5011653;28;20030;-73
2022/12/16 00:40:58;;;;;;;35.28;14.45;;;;;;;-148.88;100.00;77821.16;5011397;28;20028;-73
2022/12/16 00:43:24;;;;;;;35.78;14.68;;;;;;;-148.88;100.00;77825.22;5011219;28;20030;-74
2022/12/16 00:45:49;;;;;;;39.95;15.60;;;;;;;-148.88;100.00;77837.41;5012755;28;20477;-73
2022/12/16 00:48:15;;;;;;;35.67;16.60;;;;;;;-148.88;100.00;77849.59;5013089;28;20061;-73
2022/12/16 00:50:45;;;;;;;38.65;16.08;;;;;;;-148.88;100.00;77853.66;5011330;28;20048;-73
2022/12/16 00:53:10;;;;;;;40.28;16.00;;;;;;;-148.88;100.00;77847.56;5012607;28;20097;-73
2022/12/16 00:55:36;;;;;;;41.03;16.77;;;;;;;-148.88;100.00;77857.72;5012543;28;20073;-73
2022/12/16 00:58:01;;;;;;;38.90;16.88;;;;;;;-148.88;100.00;77849.59;5012712;28;20025;-72
2022/12/16 01:00:26;;;;;;;42.60;17.73;;;;;;;-148.88;100.00;77849.59;5012615;28;20033;-73
2022/12/16 01:02:52;;;;;;;39.42;17.67;;;;;;;-148.88;100.00;77859.75;5011122;28;20025;-73
2022/12/16 01:05:25;;;;;;;44.13;18.10;;;;;;;-148.88;100.00;77861.78;5013090;28;20385;-72
2022/12/16 01:07:51;;;;;;;41.20;16.85;;;;;;;-148.88;100.00;77874.00;5011440;28;20110;-73
2022/12/16 01:10:16;;;;;;;43.55;17.77;;;;;;;-148.88;100.00;77882.13;5020770;22;20061;-82
2022/12/16 01:12:42;;;;;;;38.97;16.15;;;;;;;-148.88;100.00;77878.06;5012548;28;20025;-81
2022/12/16 01:15:08;;;;;;;39.58;17.10;;;;;;;-148.88;100.00;77886.19;5013218;28;20038;-81
2022/12/16 01:17:34;;;;;;;44.90;16.50;;;;;;;-148.88;100.00;77886.19;5013391;28;20026;-83
2022/12/16 01:20:00;;;;;;;34.17;14.00;;;;;;;-148.88;100.00;77894.31;5013648;28;20361;-82
2022/12/16 01:24:52;;;;;;;36.58;14.68;;;;;;;-148.88;100.00;77898.38;5049600;22;20081;-88
2022/12/16 01:27:17;;;;;;;34.90;16.42;;;;;;;-148.88;100.00;77910.56;5015640;28;20475;-89
2022/12/16 01:29:43;;;;;;;35.17;15.15;;;;;;;-148.88;100.00;77902.44;5016350;28;20068;-88
2022/12/16 01:32:11;;;;;;;33.72;15.40;;;;;;;-148.88;100.00;77902.44;5016423;28;20022;-89
2022/12/16 01:34:37;;;;;;;39.13;15.95;;;;;;;-148.88;100.00;77906.50;5016273;28;20053;-88
2022/12/16 01:37:02;;;;;;;45.92;16.85;;;;;;;-148.88;100.00;77910.56;5030184;28;20014;-89
2022/12/16 01:39:29;;;;;;;42.10;18.15;;;;;;;-148.88;100.00;77918.69;5016445;28;20075;-88
2022/12/16 01:41:54;;;;;;;45.35;19.52;;;;;;;-148.88;100.00;77930.91;5016247;28;20056;-89
2022/12/16 01:44:22;;;;;;;39.85;18.25;;;;;;;-148.88;100.00;77939.03;5016037;28;20053;-88
2022/12/16 01:46:56;;;;;;;39.25;17.45;;;;;;;-148.88;100.00;77943.09;5016328;28;20486;-87
2022/12/16 01:49:50;;;;;;;45.05;18.08;;;;;;;-148.88;100.00;77941.06;5016725;28;20025;-88
2022/12/16 01:52:23;;;;;;;39.63;16.75;;;;;;;-148.88;100.00;77937.00;5016605;28;20030;-89
2022/12/16 01:55:12;;;;;;;44.42;17.45;;;;;;;-148.88;100.00;77941.06;5016220;28;20018;-89
2022/12/16 01:58:12;;;;;;;42.65;17.10;;;;;;;-148.88;100.00;77951.22;5016781;28;20034;-87
2022/12/16 02:00:39;;;;;;;44.88;16.95;;;;;;;-148.88;100.00;77955.28;4999084;28;20038;-89
2022/12/16 02:03:05;;;;;;;38.40;16.98;;;;;;;-148.88;100.00;77951.22;5015947;28;20026;-89
2022/12/16 02:05:34;;;;;;;38.97;16.77;;;;;;;-148.88;100.00;77949.19;5015662;28;20014;-88
2022/12/16 02:08:10;;;;;;;46.70;17.05;;;;;;;-148.88;100.00;77959.34;5015492;28;20480;-88
2022/12/16 02:10:41;;;;;;;35.83;15.65;;;;;;;-148.88;100.00;77949.19;5015869;28;20025;-89
2022/12/16 02:13:24;;;;;;;38.92;16.88;;;;;;;-148.88;100.00;77947.16;5015892;28;20476;-88
2022/12/16 02:16:12;;;;;;;38.70;17.08;;;;;;;-148.88;100.00;77971.53;5015742;28;20022;-89
2022/12/16 02:18:54;;;;;;;39.35;15.65;;;;;;;-148.88;100.00;77987.78;5015499;28;20022;-88
2022/12/16 02:21:50;;;;;;;42.33;16.75;;;;;;;-148.88;100.00;77955.28;5015881;28;20056;-88
2022/12/16 02:24:15;;;;;;;40.55;16.50;;;;;;;-148.88;100.00;77963.41;5016128;28;20029;-87
2022/12/16 02:27:10;;;;;;;37.97;15.80;;;;;;;-148.88;100.00;77971.53;5016086;28;20018;-88
2022/12/16 02:30:13;;;;;;;36.58;16.33;;;;;;;-148.88;100.00;77973.56;5015752;28;20036;-88
2022/12/16 02:33:32;;;;;;;44.80;17.63;;;;;;;-148.88;100.00;77971.53;5017669;28;20018;-88
2022/12/16 02:36:31;;;;;;;40.95;15.93;;;;;;;-148.88;100.00;77977.63;5000942;28;20061;-87
2022/12/16 02:39:08;;;;;;;39.60;15.82;;;;;;;-148.88;100.00;77987.78;4996523;28;20097;-88
2022/12/16 02:41:48;;;;;;;36.08;15.45;;;;;;;-148.88;100.00;77991.84;5016154;28;20030;-88
2022/12/16 02:44:15;;;;;;;37.30;16.15;;;;;;;-148.88;100.00;77991.84;5017397;28;20472;-89
2022/12/16 02:46:51;;;;;;;39.97;16.58;;;;;;;-148.88;100.00;78000.00;5017297;28;20022;-88
2022/12/16 02:52:39;;;;;;;41.10;17.67;;;;;;;-148.88;100.00;78008.13;5018601;28;20497;-88
2022/12/16 02:55:07;;;;;;;36.50;16.00;;;;;;;-148.88;100.00;78010.16;5016438;28;20026;-88
2022/12/16 02:58:01;;;;;;;43.25;17.17;;;;;;;-148.88;100.00;78016.25;5015435;28;20022;-88
2022/12/16 03:00:34;;;;;;;39.83;16.25;;;;;;;-148.88;100.00;78016.25;5015858;28;20029;-89
2022/12/16 03:03:51;;;;;;;38.85;16.58;;;;;;;-148.88;100.00;78014.22;5015788;28;20071;-88
2022/12/16 03:06:20;;;;;;;34.78;16.40;;;;;;;-148.88;100.00;78004.06;4921042;29;20056;-88
2022/12/16 03:08:51;;;;;;;32.33;14.70;;;;;;;-148.88;100.00;78008.13;4997342;28;20041;-88
2022/12/16 03:11:16;;;;;;;38.67;15.35;;;;;;;-148.88;100.00;78002.03;5014718;28;20043;-88
2022/12/16 03:13:47;;;;;;;42.40;16.25;;;;;;;-148.88;100.00;78000.00;5016262;28;20030;-88
2022/12/16 03:16:15;;;;;;;40.70;15.65;;;;;;;-148.88;100.00;78000.00;5016418;28;20506;-88
2022/12/16 03:18:44;;;;;;;44.55;17.08;;;;;;;-148.88;100.00;78012.19;5015273;28;20018;-89
2022/12/16 03:21:12;;;;;;;38.22;16.40;;;;;;;-148.88;100.00;78012.19;5016647;28;20107;-88
2022/12/16 03:23:57;;;;;;;39.00;14.52;;;;;;;-148.88;100.00;78010.16;5014681;28;20053;-88
2022/12/16 03:26:37;;;;;;;40.92;14.45;;;;;;;-148.88;100.00;78020.31;5014660;28;20021;-88
2022/12/16 03:29:41;;;;;;;38.75;16.67;;;;;;;-148.88;100.00;78026.41;5014808;28;20033;-88
2022/12/16 03:32:22;;;;;;;34.35;13.57;;;;;;;-148.88;100.00;78028.44;5015276;28;20030;-88
2022/12/16 03:34:54;;;;;;;37.47;16.35;;;;;;;-148.88;100.00;78038.59;5018748;28;20026;-88
2022/12/16 03:37:23;;;;;;;41.53;15.32;;;;;;;-148.88;100.00;78040.63;5016136;28;20119;-88
2022/12/16 03:39:54;;;;;;;34.95;15.07;;;;;;;-148.88;100.00;78042.66;5014249;28;20496;-88
2022/12/16 03:42:21;;;;;;;37.80;15.07;;;;;;;-148.88;100.00;78042.66;5014898;28;20057;-88
2022/12/16 03:44:48;;;;;;;31.98;15.43;;;;;;;-148.88;100.00;78036.56;5015849;28;20044;-88
2022/12/16 03:47:13;;;;;;;36.13;15.68;;;;;;;-148.88;100.00;78036.56;5014594;28;20489;-88
2022/12/16 03:49:39;;;;;;;30.98;14.05;;;;;;;-148.88;100.00;78040.63;5014275;28;20030;-88
2022/12/16 03:52:05;;;;;;;33.25;13.93;;;;;;;-148.88;100.00;78044.69;5015014;28;20072;-88
2022/12/16 03:54:30;;;;;;;39.17;15.07;;;;;;;-148.88;100.00;78046.72;5016304;28;20078;-87
2022/12/16 03:56:59;;;;;;;33.15;13.63;;;;;;;-148.88;100.00;78044.69;5014290;28;20030;-87
2022/12/16 03:59:24;;;;;;;40.80;15.38;;;;;;;-148.88;100.00;78046.72;5014484;28;20032;-88
2022/12/16 04:01:50;;;;;;;37.20;14.48;;;;;;;-148.88;100.00;78052.84;5016836;28;20105;-88
2022/12/16 04:04:16;;;;;;;37.25;15.45;;;;;;;-148.88;100.00;78056.91;5014743;28;20176;-88
2022/12/16 04:07:18;;;;;;;33.28;14.82;;;;;;;-148.88;100.00;78065.03;5014616;28;20083;-87
2022/12/16 04:09:30;;;;;;;31.75;15.07;;;;;;;-148.88;100.00;78052.84;5015436;28;20033;-88
2022/12/16 04:25:42;;;;;;;35.10;14.48;;;;;;;-148.88;100.00;78058.94;5016896;28;20124;-88
2022/12/16 04:28:08;;;;;;;32.28;13.85;;;;;;;-148.88;100.00;78056.91;5015646;28;20030;-88
2022/12/16 04:30:33;;;;;;;32.78;13.90;;;;;;;-148.88;100.00;78058.94;5014906;28;20037;-88
